createdAt,value
2018-10-11T00:02:19.462Z,46.97
2018-10-11T00:04:48.306Z,46.07
2018-10-11T00:07:17.037Z,48.60
2018-10-11T00:09:46.058Z,47.33
2018-10-11T00:12:15.114Z,49.63
2018-10-11T00:14:43.895Z,45.80
2018-10-11T00:17:12.605Z,50.80
2018-10-11T00:19:41.416Z,51.50
2018-10-11T00:22:10.162Z,46.80
2018-10-11T00:24:38.918Z,47.83
2018-10-11T00:27:07.737Z,51.80
2018-10-11T00:29:36.524Z,48.43
2018-10-11T00:32:05.253Z,47.77
2018-10-11T00:34:34.059Z,53.50
2018-10-11T00:37:02.792Z,49.43
2018-10-11T00:39:31.527Z,51.00
2018-10-11T00:42:00.373Z,53.90
2018-10-11T00:44:29.178Z,50.20
2018-10-11T00:46:57.943Z,50.83
2018-10-11T00:49:26.758Z,56.20
2018-10-11T00:51:55.492Z,52.83
2018-10-11T00:54:24.211Z,49.00
2018-10-11T00:56:53.510Z,62.50
2018-10-11T00:59:22.440Z,61.60
2018-10-11T01:01:51.336Z,50.20
2018-10-11T01:04:20.090Z,53.53
2018-10-11T01:06:49.123Z,54.67
2018-10-11T01:09:24.631Z,58.97
2018-10-11T01:11:53.803Z,55.50
2018-10-11T01:14:22.650Z,54.37
2018-10-11T01:16:51.679Z,58.77
2018-10-11T01:19:20.444Z,58.60
2018-10-11T01:21:49.188Z,54.50
2018-10-11T01:24:17.990Z,59.87
2018-10-11T01:26:52.035Z,58.20
2018-10-11T01:29:20.869Z,60.33
2018-10-11T01:31:49.743Z,53.83
2018-10-11T01:34:18.825Z,56.83
2018-10-11T01:36:47.761Z,59.30
2018-10-11T01:39:16.944Z,63.87
2018-10-11T01:41:45.682Z,57.27
2018-10-11T01:44:14.458Z,65.60
2018-10-11T01:46:43.244Z,60.30
2018-10-11T01:49:12.021Z,65.23
2018-10-11T01:51:40.889Z,60.90
2018-10-11T01:54:09.688Z,62.27
2018-10-11T01:56:38.482Z,62.50
2018-10-11T01:59:07.312Z,66.47
2018-10-11T02:01:36.045Z,74.17
2018-10-11T02:04:04.826Z,63.97
2018-10-11T02:06:33.631Z,65.40
2018-10-11T02:09:02.444Z,67.80
2018-10-11T02:11:31.189Z,65.03
2018-10-11T02:13:59.927Z,60.67
2018-10-11T02:16:28.754Z,64.47
2018-10-11T02:18:57.597Z,75.97
2018-10-11T02:21:26.403Z,66.50
2018-10-11T02:23:55.233Z,67.07
2018-10-11T02:26:24.049Z,73.47
2018-10-11T02:28:52.895Z,66.80
2018-10-11T02:31:21.664Z,69.60
2018-10-11T02:33:50.431Z,74.60
2018-10-11T02:36:19.218Z,66.77
2018-10-11T02:38:47.985Z,80.13
2018-10-11T02:41:16.709Z,69.73
2018-10-11T02:43:45.459Z,78.57
2018-10-11T02:46:14.244Z,72.50
2018-10-11T02:48:43.022Z,75.40
2018-10-11T02:51:11.819Z,72.13
2018-10-11T02:53:40.713Z,72.10
2018-10-11T02:56:09.535Z,73.60
2018-10-11T02:58:49.354Z,77.10
2018-10-11T03:01:18.852Z,76.47
2018-10-11T03:03:47.658Z,90.43
2018-10-11T03:06:16.478Z,81.63
2018-10-11T03:08:45.338Z,84.13
2018-10-11T03:11:14.122Z,78.67
2018-10-11T03:13:42.923Z,80.63
2018-10-11T03:16:11.686Z,75.93
2018-10-11T03:18:40.462Z,83.33
2018-10-11T03:21:09.326Z,80.33
2018-10-11T03:23:38.080Z,74.17
2018-10-11T03:26:06.883Z,99.53
2018-10-11T03:28:35.638Z,80.83
2018-10-11T03:31:04.382Z,78.73
2018-10-11T03:33:33.130Z,76.37
2018-10-11T03:36:02.419Z,80.80
2018-10-11T03:38:31.120Z,73.33
2018-10-11T03:40:59.964Z,71.80
2018-10-11T03:43:28.717Z,77.53
2018-10-11T03:45:57.477Z,72.70
2018-10-11T03:48:27.240Z,68.60
2018-10-11T03:50:55.969Z,69.47
2018-10-11T03:53:24.894Z,68.07
2018-10-11T03:55:53.606Z,63.40
2018-10-11T03:58:22.440Z,72.23
2018-10-11T04:00:51.230Z,75.47
2018-10-11T04:03:20.051Z,75.50
2018-10-11T04:05:48.860Z,70.03
2018-10-11T04:08:17.591Z,75.13
2018-10-11T04:10:46.255Z,70.37
2018-10-11T04:13:14.944Z,65.57
2018-10-11T04:15:43.738Z,76.93
2018-10-11T04:18:12.401Z,75.70
2018-10-11T04:20:41.132Z,73.87
2018-10-11T04:23:13.937Z,79.33
2018-10-11T04:25:42.635Z,82.23
2018-10-11T04:28:11.354Z,78.40
2018-10-11T04:30:40.035Z,88.67
2018-10-11T04:33:08.757Z,84.83
2018-10-11T04:35:37.469Z,86.20
2018-10-11T04:38:06.435Z,90.40
2018-10-11T04:40:35.274Z,91.37
2018-10-11T04:43:04.104Z,85.23
2018-10-11T04:45:32.813Z,95.27
2018-10-11T04:48:01.669Z,91.13
2018-10-11T04:50:30.414Z,98.63
2018-10-11T04:52:59.111Z,95.17
2018-10-11T04:55:27.909Z,86.00
2018-10-11T04:57:56.982Z,92.83
2018-10-11T05:00:26.456Z,106.63
2018-10-11T05:02:55.410Z,100.10
2018-10-11T05:05:25.546Z,95.70
2018-10-11T05:08:00.420Z,96.03
2018-10-11T05:10:29.202Z,100.53
2018-10-11T05:12:58.190Z,94.40
2018-10-11T05:15:27.823Z,90.20
2018-10-11T05:17:56.722Z,100.47
2018-10-11T05:20:25.487Z,103.57
2018-10-11T05:22:54.333Z,94.33
2018-10-11T05:27:57.264Z,89.00
2018-10-11T05:30:26.263Z,97.47
2018-10-11T05:32:55.159Z,91.57
2018-10-11T05:35:23.904Z,96.13
2018-10-11T05:38:12.913Z,90.10
2018-10-11T05:40:53.042Z,88.97
2018-10-11T05:43:26.722Z,91.27
2018-10-11T05:46:02.807Z,85.43
2018-10-11T05:48:33.257Z,91.23
2018-10-11T05:51:02.795Z,88.50
2018-10-11T05:53:31.733Z,94.33
2018-10-11T05:56:00.799Z,76.90
2018-10-11T08:13:00.906Z,57.07
2018-10-11T08:15:29.630Z,67.27
2018-10-11T08:17:58.558Z,61.03
2018-10-11T08:20:27.029Z,49.80
2018-10-11T08:22:55.719Z,42.77
2018-10-11T08:25:24.666Z,48.27
2018-10-11T08:27:53.147Z,55.70
2018-10-11T08:30:21.855Z,49.13
2018-10-11T08:32:50.525Z,56.63
2018-10-11T08:35:19.171Z,39.80
2018-10-11T08:37:47.917Z,40.33
2018-10-11T08:40:16.547Z,37.97
2018-10-11T08:42:45.190Z,37.63
2018-10-11T08:45:13.846Z,48.20
2018-10-11T08:47:42.514Z,38.50
2018-10-11T08:50:11.231Z,42.20
2018-10-11T08:52:39.880Z,35.73
2018-10-11T08:55:08.611Z,42.03
2018-10-11T08:57:37.253Z,40.23
2018-10-11T09:00:06.811Z,38.97
2018-10-11T09:02:35.448Z,41.60
2018-10-11T09:05:04.182Z,42.60
2018-10-11T09:07:32.795Z,52.23
2018-10-11T09:10:01.522Z,43.77
2018-10-11T09:12:30.194Z,45.43
2018-10-11T09:14:58.849Z,44.63
2018-10-11T09:17:27.577Z,42.47
2018-10-11T09:19:56.279Z,31.40
2018-10-11T09:22:26.077Z,34.07
2018-10-11T09:24:54.787Z,36.30
2018-10-11T09:27:23.485Z,44.77
2018-10-11T09:29:52.238Z,32.97
2018-10-11T09:32:21.039Z,32.80
2018-10-11T09:34:49.858Z,40.83
2018-10-11T09:37:18.570Z,47.27
2018-10-11T09:39:47.270Z,33.37
2018-10-11T09:42:16.298Z,36.20
2018-10-11T09:44:45.020Z,30.90
2018-10-11T09:47:13.729Z,47.60
2018-10-11T09:49:42.454Z,37.20
2018-10-11T09:52:11.526Z,34.73
2018-10-11T09:54:40.264Z,26.67
2018-10-11T09:57:33.171Z,35.20
2018-10-11T10:00:03.313Z,29.87
2018-10-11T10:02:32.337Z,25.00
2018-10-11T10:05:04.009Z,31.93
2018-10-11T10:07:32.759Z,34.23
2018-10-11T10:10:01.632Z,36.53
2018-10-11T10:12:30.110Z,31.93
2018-10-11T10:14:58.769Z,34.10
2018-10-11T10:17:27.380Z,34.03
2018-10-11T10:19:56.053Z,37.67
2018-10-11T10:22:24.713Z,30.97
2018-10-11T10:24:53.735Z,34.60
2018-10-11T10:27:23.008Z,32.13
2018-10-11T10:29:51.731Z,28.53
2018-10-11T10:32:20.605Z,35.03
2018-10-11T10:34:49.248Z,27.63
2018-10-11T10:37:17.921Z,28.23
2018-10-11T10:39:46.543Z,33.00
2018-10-11T10:42:15.152Z,28.70
2018-10-11T10:44:43.995Z,36.30
2018-10-11T10:47:12.642Z,33.77
2018-10-11T10:49:41.340Z,42.93
2018-10-11T10:52:10.124Z,29.83
2018-10-11T10:54:38.746Z,35.83
2018-10-11T10:57:07.449Z,28.77
2018-10-11T10:59:36.098Z,39.07
2018-10-11T11:02:04.854Z,30.93
2018-10-11T11:04:33.518Z,36.80
2018-10-11T11:07:02.190Z,35.47
2018-10-11T11:09:30.868Z,27.70
2018-10-11T11:11:59.502Z,32.57
2018-10-11T11:14:28.179Z,30.53
2018-10-11T11:16:56.780Z,32.20
2018-10-11T11:19:25.804Z,33.07
2018-10-11T11:21:57.385Z,28.40
2018-10-11T11:24:26.087Z,35.20
2018-10-11T11:26:54.707Z,25.17
2018-10-11T11:29:23.478Z,28.67
2018-10-11T11:31:52.240Z,39.23
2018-10-11T11:34:20.956Z,28.33
2018-10-11T11:36:49.700Z,32.93
2018-10-11T11:39:18.382Z,32.13
2018-10-11T11:41:47.097Z,35.23
2018-10-11T11:44:15.761Z,37.23
2018-10-11T11:46:44.440Z,26.17
2018-10-11T11:49:13.248Z,27.00
2018-10-11T11:51:41.942Z,29.03
2018-10-11T11:54:18.859Z,29.93
2018-10-11T11:56:47.678Z,31.40
2018-10-11T11:59:16.801Z,29.80
2018-10-11T12:01:45.470Z,28.03
2018-10-11T12:04:14.131Z,30.23
2018-10-11T12:06:42.755Z,24.60
2018-10-11T12:09:13.110Z,28.63
2018-10-11T12:11:42.041Z,29.47
2018-10-11T12:14:10.782Z,31.90
2018-10-11T12:16:39.777Z,24.60
2018-10-11T12:19:10.077Z,36.10
2018-10-11T12:21:38.898Z,23.87
2018-10-11T12:24:07.657Z,30.00
2018-10-11T12:26:36.345Z,28.43
2018-10-11T12:29:05.205Z,24.70
2018-10-11T12:31:33.728Z,31.23
2018-10-11T12:34:02.395Z,36.77
2018-10-11T12:36:31.091Z,30.70
2018-10-11T12:38:59.740Z,30.70
2018-10-11T12:41:28.407Z,26.00
2018-10-11T12:43:57.174Z,25.27
2018-10-11T12:46:26.002Z,20.80
2018-10-11T12:48:54.665Z,30.43
2018-10-11T12:51:23.443Z,21.00
2018-10-11T12:53:52.096Z,24.30
2018-10-11T12:56:20.807Z,22.17
2018-10-11T12:58:49.531Z,27.50
2018-10-11T13:01:20.469Z,27.00
2018-10-11T13:03:46.903Z,34.43
2018-10-11T13:06:15.661Z,25.73
2018-10-11T13:08:44.329Z,29.63
2018-10-11T13:11:13.139Z,29.03
2018-10-11T13:13:45.770Z,27.97
2018-10-11T13:16:10.554Z,26.53
2018-10-11T13:18:39.235Z,28.47
2018-10-11T13:21:07.946Z,27.27
2018-10-11T13:23:36.638Z,26.53
2018-10-11T13:26:05.292Z,24.03
2018-10-11T13:28:33.958Z,35.87
2018-10-11T13:31:02.620Z,26.23
2018-10-11T13:33:31.277Z,23.47
2018-10-11T13:36:00.423Z,28.43
2018-10-11T13:38:29.177Z,26.17
2018-10-11T13:41:02.270Z,20.70
2018-10-11T13:43:26.945Z,32.83
2018-10-11T13:46:00.109Z,27.80
2018-10-11T13:48:25.124Z,28.70
2018-10-11T13:50:53.785Z,32.87
2018-10-11T13:53:24.525Z,31.57
2018-10-11T13:55:56.670Z,24.40
2018-10-11T13:58:20.042Z,23.53
2018-10-11T14:00:48.750Z,32.03
2018-10-11T14:05:51.424Z,25.30
2018-10-11T14:08:20.078Z,18.47
2018-10-11T14:10:48.843Z,21.23
2018-10-11T14:13:20.486Z,20.47
2018-10-11T14:15:46.429Z,22.67
2018-10-11T14:18:16.518Z,18.60
2018-10-11T14:20:45.160Z,15.93
2018-10-11T14:23:13.812Z,20.17
2018-10-11T14:25:42.610Z,25.20
2018-10-11T14:28:11.589Z,18.63
2018-10-11T14:30:41.017Z,25.23
2018-10-11T14:33:16.500Z,38.03
2018-10-11T14:35:45.474Z,24.80
2018-10-11T14:38:14.155Z,16.63
2018-10-11T14:40:42.865Z,17.00
2018-10-11T14:43:11.591Z,17.53
2018-10-11T14:45:40.285Z,21.10
2018-10-11T14:48:09.031Z,16.37
2018-10-11T14:50:37.762Z,25.60
2018-10-11T14:53:06.506Z,22.30
2018-10-11T14:55:35.185Z,16.53
2018-10-11T14:58:03.858Z,22.10
2018-10-11T15:00:32.538Z,28.10
2018-10-11T15:03:01.347Z,19.20
2018-10-11T15:05:29.961Z,21.33
2018-10-11T15:07:58.671Z,17.10
2018-10-11T15:10:27.423Z,17.43
2018-10-11T15:12:56.420Z,18.10
2018-10-11T15:15:25.362Z,17.27
2018-10-11T15:17:54.105Z,19.97
2018-10-11T15:20:22.800Z,16.87
2018-10-11T15:22:51.545Z,29.57
2018-10-11T15:25:20.349Z,16.40
2018-10-11T15:27:49.620Z,19.23
2018-10-11T15:30:19.802Z,22.03
2018-10-11T15:32:49.626Z,33.33
2018-10-11T15:35:20.495Z,28.20
2018-10-11T15:37:49.690Z,22.97
2018-10-11T15:40:21.151Z,93.57
2018-10-11T15:42:49.867Z,26.63
2018-10-11T15:45:20.452Z,23.13
2018-10-11T15:50:33.145Z,26.90
2018-10-11T15:53:04.607Z,28.77
2018-10-11T15:55:33.913Z,17.43
2018-10-11T15:58:05.017Z,20.53
2018-10-11T16:00:34.926Z,22.13
2018-10-11T16:03:04.181Z,30.10
2018-10-11T16:05:33.042Z,19.63
2018-10-11T16:08:01.726Z,24.30
2018-10-11T16:10:31.094Z,18.40
2018-10-11T16:12:59.882Z,19.70
2018-10-11T16:15:28.684Z,26.07
2018-10-11T16:17:57.466Z,18.00
2018-10-11T16:20:26.152Z,24.00
2018-10-11T16:22:54.824Z,20.43
2018-10-11T16:25:23.579Z,28.93
2018-10-11T16:30:35.288Z,20.10
2018-10-11T16:33:06.413Z,20.87
2018-10-11T16:35:35.171Z,19.33
2018-10-11T16:38:04.062Z,19.93
2018-10-11T16:40:32.780Z,25.87
2018-10-11T16:43:01.577Z,21.53
2018-10-11T16:45:56.268Z,23.60
2018-10-11T16:48:33.566Z,19.47
2018-10-11T16:51:02.381Z,30.23
2018-10-11T16:53:31.166Z,33.73
2018-10-11T16:56:01.100Z,21.83
2018-10-11T16:58:29.760Z,21.70
2018-10-11T17:01:01.812Z,23.77
2018-10-11T17:03:30.722Z,20.93
2018-10-11T17:05:59.354Z,30.50
2018-10-11T17:08:28.082Z,23.53
2018-10-11T17:10:56.718Z,31.10
2018-10-11T17:13:25.341Z,22.40
2018-10-11T17:15:53.962Z,28.57
2018-10-11T17:18:22.632Z,27.00
2018-10-11T17:20:51.275Z,20.70
2018-10-11T17:23:19.985Z,25.43
2018-10-11T17:25:48.653Z,20.30
2018-10-11T17:28:17.400Z,20.00
2018-10-11T17:30:46.235Z,23.13
2018-10-11T17:33:15.049Z,25.00
2018-10-11T17:35:43.770Z,29.10
2018-10-11T17:38:12.526Z,20.97
2018-10-11T17:40:41.169Z,26.23
2018-10-11T17:43:09.945Z,25.00
2018-10-11T17:45:38.716Z,24.10
2018-10-11T17:48:07.574Z,31.77
2018-10-11T17:50:36.292Z,26.30
2018-10-11T17:53:04.961Z,23.90
2018-10-11T17:55:33.556Z,31.20
2018-10-11T17:58:02.257Z,27.53
2018-10-11T18:00:30.950Z,23.50
2018-10-11T18:02:59.655Z,24.43
2018-10-11T18:05:28.313Z,21.63
2018-10-11T18:07:56.975Z,18.37
2018-10-11T18:10:25.610Z,24.03
2018-10-11T18:12:54.245Z,25.20
2018-10-11T18:15:22.985Z,23.67
2018-10-11T18:17:51.580Z,28.80
2018-10-11T18:20:20.302Z,29.10
2018-10-11T18:22:49.005Z,27.53
2018-10-11T18:25:17.622Z,29.70
2018-10-11T18:27:46.264Z,32.00
2018-10-11T18:30:23.147Z,29.73
2018-10-11T18:32:51.844Z,23.43
2018-10-11T18:35:20.483Z,28.13
2018-10-11T18:37:49.281Z,31.70
2018-10-11T18:40:21.186Z,32.80
2018-10-11T18:42:51.033Z,21.40
2018-10-11T18:45:19.736Z,24.60
2018-10-11T18:47:54.737Z,21.43
2018-10-11T18:50:25.111Z,20.90
2018-10-11T18:52:53.808Z,30.27
2018-10-11T18:55:22.788Z,26.63
2018-10-11T18:58:03.812Z,29.60
2018-10-11T19:00:32.455Z,30.13
2018-10-11T19:03:04.417Z,22.67
2018-10-11T19:05:33.077Z,34.07
2018-10-11T19:08:01.693Z,35.03
2018-10-11T19:13:19.305Z,29.17
2018-10-11T19:15:48.394Z,28.43
2018-10-11T19:18:17.151Z,27.97
2018-10-11T19:20:45.834Z,29.57
2018-10-11T19:23:14.592Z,23.17
2018-10-11T19:25:43.363Z,27.20
2018-10-11T19:28:12.106Z,25.07
2018-10-11T19:30:40.817Z,23.67
2018-10-11T19:33:09.591Z,21.67
2018-10-11T19:35:38.238Z,21.73
2018-10-11T19:38:06.937Z,25.63
2018-10-11T19:40:35.624Z,33.50
2018-10-11T19:43:04.353Z,30.23
2018-10-11T19:45:32.978Z,25.27
2018-10-11T19:48:02.021Z,24.40
2018-10-11T19:50:30.955Z,27.97
2018-10-11T19:53:03.121Z,27.03
2018-10-11T19:55:31.795Z,29.27
2018-10-11T19:58:00.636Z,24.10
2018-10-11T20:00:29.553Z,27.00
2018-10-11T20:02:58.234Z,22.70
2018-10-11T20:05:26.899Z,23.10
2018-10-11T20:07:55.725Z,30.50
2018-10-11T20:10:24.454Z,25.50
2018-10-11T20:12:53.250Z,28.97
2018-10-11T20:15:22.014Z,24.50
2018-10-11T20:17:50.840Z,36.00
2018-10-11T20:20:19.713Z,26.83
2018-10-11T20:22:48.981Z,29.17
2018-10-11T20:25:17.850Z,25.23
2018-10-11T20:27:46.791Z,25.57
2018-10-11T20:30:15.769Z,25.40
2018-10-11T20:32:44.565Z,29.17
2018-10-11T20:35:13.256Z,23.40
2018-10-11T20:37:42.001Z,30.30
2018-10-11T20:40:10.798Z,24.80
2018-10-11T20:42:39.511Z,28.27
2018-10-11T20:45:08.282Z,27.60
2018-10-11T20:47:36.963Z,26.97
2018-10-11T20:50:06.020Z,30.80
2018-10-11T20:52:34.891Z,27.60
2018-10-11T20:55:05.028Z,27.00
2018-10-11T20:57:33.984Z,30.37
2018-10-11T21:00:02.754Z,33.33
2018-10-11T21:02:31.621Z,34.07
2018-10-11T21:05:00.636Z,26.67
2018-10-11T21:07:29.514Z,30.23
2018-10-11T21:09:59.951Z,42.30
2018-10-11T21:12:28.804Z,29.80
2018-10-11T21:14:57.603Z,32.60
2018-10-11T21:17:26.398Z,28.20
2018-10-11T21:19:56.037Z,27.07
2018-10-11T21:22:24.990Z,29.93
2018-10-11T21:24:54.043Z,25.97
2018-10-11T21:27:22.806Z,32.80
2018-10-11T21:29:51.623Z,31.23
2018-10-11T21:32:20.495Z,31.90
2018-10-11T21:34:49.346Z,35.50
2018-10-11T21:37:18.166Z,33.80
2018-10-11T21:39:46.874Z,31.20
2018-10-11T21:42:15.731Z,33.33
2018-10-11T21:44:44.470Z,30.30
2018-10-11T21:47:13.208Z,34.90
2018-10-11T21:49:41.945Z,36.73
2018-10-11T21:52:10.794Z,31.00
2018-10-11T21:54:39.466Z,37.27
2018-10-11T21:57:08.552Z,33.27
2018-10-11T21:59:37.484Z,32.07
2018-10-11T22:02:08.407Z,36.33
2018-10-11T22:04:49.129Z,30.20
2018-10-11T22:07:29.109Z,38.50
2018-10-11T22:09:58.031Z,35.77
2018-10-11T22:12:26.845Z,31.27
2018-10-11T22:14:56.038Z,40.60
2018-10-11T22:17:24.621Z,33.30
2018-10-11T22:20:11.993Z,33.77
2018-10-11T22:22:42.653Z,38.07
2018-10-11T22:25:42.161Z,34.93
2018-10-11T22:30:45.121Z,40.47
2018-10-11T22:33:13.859Z,39.03
2018-10-11T22:35:52.219Z,36.50
2018-10-11T22:38:20.930Z,36.70
2018-10-11T22:40:49.723Z,38.30
2018-10-11T22:43:18.426Z,35.70
2018-10-11T22:45:47.190Z,35.23
2018-10-11T22:48:15.967Z,43.30
2018-10-11T22:50:44.636Z,39.33
2018-10-11T22:53:13.247Z,40.17
2018-10-11T22:55:41.937Z,46.73
2018-10-11T22:58:10.565Z,48.57
2018-10-11T23:00:39.278Z,44.87
2018-10-11T23:03:08.029Z,45.53
2018-10-11T23:05:36.678Z,38.90
2018-10-11T23:08:06.411Z,44.13
2018-10-11T23:10:35.160Z,50.03
2018-10-11T23:13:03.999Z,38.53
2018-10-11T23:15:32.766Z,43.40
2018-10-11T23:18:01.504Z,38.60
2018-10-11T23:20:30.159Z,46.60
2018-10-11T23:22:58.814Z,41.90
2018-10-11T23:25:27.572Z,38.00
2018-10-11T23:27:56.247Z,40.07
2018-10-11T23:30:25.034Z,40.73
2018-10-11T23:32:53.699Z,39.70
2018-10-11T23:35:22.388Z,39.00
2018-10-11T23:37:51.200Z,37.93
2018-10-11T23:40:19.873Z,40.83
2018-10-11T23:42:48.500Z,38.50
2018-10-11T23:45:17.143Z,38.60
2018-10-11T23:47:45.774Z,37.90
2018-10-11T23:50:14.466Z,36.13
2018-10-11T23:52:43.125Z,42.80
2018-10-11T23:55:11.822Z,42.07
2018-10-11T23:57:40.475Z,40.43
